createdAt,value
2018-08-14T00:01:05.368Z,43.43
2018-08-14T00:03:33.538Z,39.30
2018-08-14T00:06:01.701Z,41.07
2018-08-14T00:08:29.865Z,39.77
2018-08-14T00:10:58.000Z,43.90
2018-08-14T00:13:26.199Z,43.28
2018-08-14T00:15:54.345Z,42.95
2018-08-14T00:18:22.477Z,43.47
2018-08-14T00:20:50.617Z,43.80
2018-08-14T00:23:18.770Z,40.98
2018-08-14T00:25:46.935Z,41.53
2018-08-14T00:28:15.046Z,39.63
2018-08-14T00:30:43.192Z,39.03
2018-08-14T00:33:12.329Z,40.65
2018-08-14T00:35:40.488Z,39.80
2018-08-14T00:38:08.762Z,38.20
2018-08-14T00:40:36.936Z,39.60
2018-08-14T00:43:07.094Z,39.93
2018-08-14T00:45:35.318Z,38.23
2018-08-14T00:48:03.474Z,40.90
2018-08-14T00:50:31.622Z,38.77
2018-08-14T00:52:59.838Z,39.40
2018-08-14T00:55:28.619Z,38.43
2018-08-14T00:57:57.287Z,38.90
2018-08-14T01:00:34.385Z,39.00
2018-08-14T01:03:02.441Z,38.50
2018-08-14T01:05:30.643Z,36.68
2018-08-14T01:07:59.189Z,35.43
2018-08-14T01:10:27.271Z,41.67
2018-08-14T01:12:56.182Z,37.20
2018-08-14T01:15:25.431Z,37.57
2018-08-14T01:17:54.284Z,38.97
2018-08-14T01:20:24.794Z,34.17
2018-08-14T01:22:52.955Z,33.70
2018-08-14T01:25:21.025Z,35.43
2018-08-14T01:27:50.004Z,35.00
2018-08-14T01:30:21.122Z,35.70
2018-08-14T01:32:49.368Z,38.00
2018-08-14T01:35:17.536Z,38.77
2018-08-14T01:37:45.705Z,39.53
2018-08-14T01:40:13.807Z,39.97
2018-08-14T01:42:42.013Z,41.50
2018-08-14T01:45:11.404Z,39.57
2018-08-14T01:47:39.484Z,38.95
2018-08-14T01:50:09.860Z,36.97
2018-08-14T01:52:37.951Z,35.85
2018-08-14T01:55:06.275Z,37.80
2018-08-14T01:57:34.314Z,33.53
2018-08-14T02:00:02.417Z,36.20
2018-08-14T02:02:30.586Z,34.10
2018-08-14T02:04:58.679Z,33.40
2018-08-14T02:07:26.745Z,33.33
2018-08-14T02:09:54.774Z,33.20
2018-08-14T02:12:22.878Z,33.33
2018-08-14T02:14:50.951Z,33.27
2018-08-14T02:17:18.982Z,32.75
2018-08-14T02:19:47.086Z,32.15
2018-08-14T02:22:15.149Z,31.90
2018-08-14T02:24:43.259Z,32.73
2018-08-14T02:27:11.335Z,30.70
2018-08-14T02:29:39.393Z,31.70
2018-08-14T02:32:07.511Z,31.50
2018-08-14T02:34:35.627Z,30.77
2018-08-14T02:37:03.686Z,32.40
2018-08-14T02:39:31.755Z,31.30
2018-08-14T02:41:59.865Z,31.03
2018-08-14T02:44:27.977Z,32.63
2018-08-14T02:46:56.066Z,33.03
2018-08-14T02:49:24.210Z,29.87
2018-08-14T02:51:52.311Z,29.37
2018-08-14T02:54:20.456Z,28.60
2018-08-14T02:56:48.582Z,29.90
2018-08-14T02:59:16.704Z,30.10
2018-08-14T03:01:44.772Z,29.80
2018-08-14T03:04:12.885Z,29.53
2018-08-14T03:06:40.983Z,30.13
2018-08-14T03:09:10.404Z,29.80
2018-08-14T03:11:39.513Z,28.42
2018-08-14T03:14:08.225Z,31.03
2018-08-14T03:16:36.320Z,30.00
2018-08-14T03:19:04.895Z,28.95
2018-08-14T03:21:32.968Z,28.47
2018-08-14T03:24:01.463Z,30.40
2018-08-14T03:26:29.951Z,30.30
2018-08-14T03:28:58.131Z,28.47
2018-08-14T03:31:26.737Z,29.53
2018-08-14T03:33:54.859Z,29.90
2018-08-14T03:36:22.958Z,30.37
2018-08-14T03:38:51.102Z,27.23
2018-08-14T03:41:19.213Z,30.73
2018-08-14T03:43:47.351Z,28.77
2018-08-14T03:46:15.429Z,30.97
2018-08-14T03:48:43.559Z,32.17
2018-08-14T03:51:11.684Z,30.10
2018-08-14T03:53:39.833Z,32.07
2018-08-14T03:56:07.986Z,31.47
2018-08-14T03:58:36.074Z,30.50
2018-08-14T04:01:04.188Z,31.23
2018-08-14T04:03:32.311Z,32.03
2018-08-14T04:06:00.493Z,31.20
2018-08-14T04:08:28.580Z,30.40
2018-08-14T04:10:57.560Z,33.00
2018-08-14T04:13:25.708Z,29.55
2018-08-14T04:15:53.801Z,29.53
2018-08-14T04:18:21.955Z,29.60
2018-08-14T04:20:50.095Z,29.10
2018-08-14T04:23:18.303Z,31.02
2018-08-14T04:25:46.460Z,29.80
2018-08-14T04:28:14.564Z,27.75
2018-08-14T04:30:42.685Z,27.30
2018-08-14T04:33:11.421Z,29.20
2018-08-14T04:35:39.574Z,29.67
2018-08-14T04:38:07.736Z,27.60
2018-08-14T04:40:35.914Z,28.90
2018-08-14T04:43:04.153Z,26.43
2018-08-14T04:45:32.274Z,30.93
2018-08-14T04:48:00.735Z,28.67
2018-08-14T04:50:28.868Z,28.87
2018-08-14T04:52:56.993Z,26.30
2018-08-14T04:55:25.167Z,26.93
2018-08-14T04:57:54.192Z,26.70
2018-08-14T05:00:22.325Z,25.77
2018-08-14T05:02:50.445Z,28.73
2018-08-14T05:05:18.630Z,25.73
2018-08-14T05:07:46.771Z,28.75
2018-08-14T05:10:15.848Z,27.30
2018-08-14T05:12:44.018Z,24.30
2018-08-14T05:15:12.167Z,27.02
2018-08-14T05:17:40.677Z,26.30
2018-08-14T05:20:10.473Z,26.73
2018-08-14T05:22:38.588Z,25.67
2018-08-14T05:25:07.068Z,22.73
2018-08-14T05:27:35.268Z,25.87
2018-08-14T05:30:03.513Z,24.23
2018-08-14T05:32:31.673Z,22.70
2018-08-14T05:34:59.849Z,22.40
2018-08-14T05:37:28.021Z,23.47
2018-08-14T05:39:56.187Z,21.57
2018-08-14T05:42:24.343Z,20.07
2018-08-14T05:44:52.487Z,21.97
2018-08-14T05:47:20.616Z,22.27
2018-08-14T05:49:48.748Z,21.40
2018-08-14T05:52:16.890Z,23.20
2018-08-14T05:54:45.027Z,22.45
2018-08-14T05:57:13.171Z,23.73
2018-08-14T05:59:41.314Z,22.50
2018-08-14T06:02:09.451Z,22.30
2018-08-14T06:04:37.600Z,22.17
2018-08-14T06:07:05.959Z,20.95
2018-08-14T06:09:34.180Z,21.87
2018-08-14T06:12:02.333Z,21.67
2018-08-14T06:14:30.522Z,21.90
2018-08-14T06:16:58.721Z,21.03
2018-08-14T06:19:26.947Z,19.60
2018-08-14T06:21:55.109Z,20.07
2018-08-14T06:24:23.279Z,17.80
2018-08-14T06:26:51.431Z,20.90
2018-08-14T06:29:19.607Z,18.98
2018-08-14T06:31:47.755Z,17.55
2018-08-14T06:34:16.032Z,18.10
2018-08-14T06:36:44.206Z,16.47
2018-08-14T06:39:14.406Z,16.93
2018-08-14T06:41:42.648Z,16.77
2018-08-14T06:44:10.972Z,15.70
2018-08-14T06:46:39.187Z,17.10
2018-08-14T06:49:07.616Z,16.73
2018-08-14T06:51:35.858Z,19.53
2018-08-14T06:54:04.409Z,18.90
2018-08-14T06:56:32.560Z,18.87
2018-08-14T06:59:00.691Z,19.02
2018-08-14T07:01:28.838Z,19.07
2018-08-14T07:03:58.019Z,20.00
2018-08-14T07:06:26.225Z,19.40
2018-08-14T07:08:54.369Z,18.10
2018-08-14T07:11:22.528Z,20.10
2018-08-14T07:13:50.731Z,19.77
2018-08-14T07:16:18.898Z,21.40
2018-08-14T07:18:47.053Z,19.03
2018-08-14T07:21:15.251Z,17.63
2018-08-14T07:23:43.511Z,20.77
2018-08-14T07:26:11.684Z,21.00
2018-08-14T07:28:39.859Z,18.37
2018-08-14T07:31:07.992Z,19.83
2018-08-14T07:33:36.196Z,20.73
2018-08-14T07:36:04.352Z,19.93
2018-08-14T07:38:32.514Z,18.40
2018-08-14T07:41:00.732Z,17.63
2018-08-14T07:43:28.868Z,17.87
2018-08-14T07:45:56.971Z,19.20
2018-08-14T07:48:25.126Z,17.43
2018-08-14T07:50:53.317Z,15.43
2018-08-14T07:53:21.467Z,14.60
2018-08-14T07:55:49.672Z,13.18
2018-08-14T07:58:17.835Z,13.20
2018-08-14T08:00:45.980Z,14.00
2018-08-14T08:03:14.123Z,12.88
2018-08-14T08:05:42.275Z,11.40
2018-08-14T08:08:10.450Z,11.70
2018-08-14T08:10:38.606Z,10.70
2018-08-14T08:13:07.254Z,11.60
2018-08-14T08:15:35.395Z,10.10
2018-08-14T08:18:03.573Z,10.90
2018-08-14T08:20:35.397Z,10.93
2018-08-14T08:23:05.711Z,9.95
2018-08-14T08:25:34.056Z,10.83
2018-08-14T08:28:02.488Z,7.80
2018-08-14T08:30:30.808Z,7.03
2018-08-14T08:32:58.968Z,7.10
2018-08-14T08:35:27.799Z,6.33
2018-08-14T08:37:56.106Z,5.90
2018-08-14T08:40:24.248Z,6.30
2018-08-14T08:42:52.397Z,6.63
2018-08-14T08:45:20.540Z,7.17
2018-08-14T08:47:48.708Z,7.03
2018-08-14T08:50:16.847Z,6.70
2018-08-14T08:52:45.492Z,5.65
2018-08-14T08:55:16.969Z,6.45
2018-08-14T08:57:45.252Z,5.70
2018-08-14T09:00:15.060Z,4.95
2018-08-14T09:02:43.183Z,5.77
2018-08-14T09:05:13.272Z,7.90
2018-08-14T09:07:41.427Z,8.13
2018-08-14T09:10:10.950Z,7.33
2018-08-14T09:12:39.394Z,6.67
2018-08-14T09:15:08.194Z,7.10
2018-08-14T09:17:36.529Z,6.70
2018-08-14T09:20:05.826Z,6.70
2018-08-14T09:22:34.017Z,5.93
2018-08-14T09:25:02.184Z,6.47
2018-08-14T09:27:30.327Z,7.30
2018-08-14T09:29:58.529Z,6.50
2018-08-14T09:32:26.759Z,5.83
2018-08-14T09:34:55.271Z,6.33
2018-08-14T09:37:23.528Z,5.63
2018-08-14T09:39:51.694Z,5.40
2018-08-14T09:42:19.848Z,4.50
2018-08-14T09:44:48.315Z,4.23
2018-08-14T09:47:16.609Z,4.23
2018-08-14T09:49:44.736Z,6.23
2018-08-14T09:52:12.874Z,5.50
2018-08-14T09:54:41.070Z,5.93
2018-08-14T09:57:09.194Z,6.50
2018-08-14T09:59:37.340Z,6.30
2018-08-14T10:02:10.861Z,5.93
2018-08-14T10:04:44.487Z,6.43
2018-08-14T10:07:19.216Z,6.57
2018-08-14T10:09:47.627Z,6.40
2018-08-14T10:12:15.864Z,5.87
2018-08-14T10:14:44.094Z,4.60
2018-08-14T10:17:15.100Z,4.77
2018-08-14T10:19:44.344Z,4.20
2018-08-14T10:22:12.521Z,4.93
2018-08-14T10:24:40.677Z,5.00
2018-08-14T10:27:08.788Z,5.33
2018-08-14T10:29:36.958Z,4.27
2018-08-14T10:32:05.156Z,4.60
2018-08-14T10:34:33.282Z,6.03
2018-08-14T10:37:01.480Z,4.93
2018-08-14T10:39:29.753Z,6.57
2018-08-14T10:41:57.887Z,5.67
2018-08-14T10:44:25.989Z,6.10
2018-08-14T10:46:54.116Z,6.97
2018-08-14T10:49:22.259Z,6.53
2018-08-14T10:51:50.389Z,5.60
2018-08-14T10:54:18.658Z,5.30
2018-08-14T10:56:46.792Z,5.60
2018-08-14T10:59:14.925Z,5.27
2018-08-14T11:01:43.114Z,4.27
2018-08-14T11:04:11.254Z,3.97
2018-08-14T11:06:39.570Z,3.80
2018-08-14T11:09:08.446Z,3.10
2018-08-14T11:11:41.974Z,3.60
2018-08-14T11:14:10.232Z,3.07
2018-08-14T11:16:38.367Z,2.70
2018-08-14T11:19:06.509Z,2.47
2018-08-14T11:21:34.696Z,2.40
2018-08-14T11:24:02.816Z,3.10
2018-08-14T11:26:30.957Z,3.60
2018-08-14T11:28:59.075Z,4.20
2018-08-14T11:31:27.213Z,5.13
2018-08-14T11:33:55.344Z,4.60
2018-08-14T11:36:23.468Z,5.90
2018-08-14T11:38:51.615Z,6.53
2018-08-14T11:41:19.720Z,6.20
2018-08-14T11:43:47.836Z,7.23
2018-08-14T11:46:15.947Z,7.45
2018-08-14T11:48:44.106Z,7.50
2018-08-14T11:51:12.230Z,5.93
2018-08-14T11:53:40.347Z,5.50
2018-08-14T11:56:08.428Z,4.60
2018-08-14T11:58:36.565Z,5.83
2018-08-14T12:01:04.700Z,5.20
2018-08-14T12:03:32.842Z,4.20
2018-08-14T12:06:00.967Z,3.30
2018-08-14T12:08:29.100Z,4.40
2018-08-14T12:10:57.321Z,2.60
2018-08-14T12:13:25.427Z,2.20
2018-08-14T12:15:53.557Z,2.30
2018-08-14T12:18:21.724Z,2.00
2018-08-14T12:20:49.828Z,2.10
2018-08-14T12:23:17.959Z,2.30
2018-08-14T12:25:46.070Z,1.73
2018-08-14T12:28:14.231Z,1.93
2018-08-14T12:30:42.358Z,2.33
2018-08-14T12:33:11.717Z,2.62
2018-08-14T12:35:39.894Z,2.50
2018-08-14T12:38:07.995Z,2.70
2018-08-14T12:40:36.089Z,2.47
2018-08-14T12:43:05.960Z,2.57
2018-08-14T12:45:34.309Z,2.30
2018-08-14T12:48:02.407Z,3.22
2018-08-14T12:50:30.535Z,2.40
2018-08-14T12:52:58.720Z,2.60
2018-08-14T12:55:26.823Z,2.43
2018-08-14T12:57:54.964Z,3.10
2018-08-14T13:00:25.161Z,2.67
2018-08-14T13:02:53.958Z,2.43
2018-08-14T13:05:22.614Z,2.33
2018-08-14T13:07:50.760Z,2.10
2018-08-14T13:10:18.889Z,3.57
2018-08-14T13:12:47.033Z,2.03
2018-08-14T13:15:15.489Z,3.10
2018-08-14T13:17:52.576Z,2.53
2018-08-14T13:20:21.051Z,3.00
2018-08-14T13:22:49.244Z,2.63
2018-08-14T13:25:17.404Z,2.83
2018-08-14T13:27:45.580Z,3.10
2018-08-14T13:30:14.076Z,3.20
2018-08-14T13:32:42.702Z,2.80
2018-08-14T13:35:10.925Z,3.03
2018-08-14T13:37:39.093Z,2.10
2018-08-14T13:40:08.387Z,2.03
2018-08-14T13:42:36.686Z,2.00
2018-08-14T13:45:05.594Z,1.77
2018-08-14T13:47:33.732Z,1.47
2018-08-14T13:50:02.253Z,1.50
2018-08-14T13:52:30.628Z,2.17
2018-08-14T13:54:59.004Z,1.83
2018-08-14T13:57:27.273Z,1.83
2018-08-14T13:59:58.987Z,1.70
2018-08-14T14:02:29.806Z,2.17
2018-08-14T14:04:57.982Z,2.10
2018-08-14T14:07:26.123Z,2.20
2018-08-14T14:09:54.269Z,2.07
2018-08-14T14:12:22.390Z,2.00
2018-08-14T14:14:50.554Z,2.20
2018-08-14T14:17:18.688Z,2.40
2018-08-14T14:19:46.859Z,3.33
2018-08-14T14:22:14.979Z,2.20
2018-08-14T14:24:43.067Z,2.37
2018-08-14T14:27:11.258Z,2.37
2018-08-14T14:29:39.408Z,3.20
2018-08-14T14:32:07.548Z,2.57
2018-08-14T14:34:35.728Z,2.87
2018-08-14T14:37:03.959Z,2.70
2018-08-14T14:39:32.086Z,2.90
2018-08-14T14:42:00.214Z,2.80
2018-08-14T14:44:28.357Z,2.40
2018-08-14T14:46:56.507Z,2.50
2018-08-14T14:49:24.696Z,2.30
2018-08-14T14:51:52.897Z,2.00
2018-08-14T14:54:22.084Z,2.30
2018-08-14T14:56:50.238Z,2.70
2018-08-14T14:59:18.419Z,3.20
2018-08-14T15:01:46.530Z,2.83
2018-08-14T15:04:14.698Z,3.00
2018-08-14T15:06:42.877Z,2.50
2018-08-14T15:09:12.490Z,2.50
2018-08-14T15:11:40.802Z,3.40
2018-08-14T15:14:09.389Z,5.20
2018-08-14T15:16:37.471Z,4.63
2018-08-14T15:19:17.252Z,4.53
2018-08-14T15:21:45.433Z,4.17
2018-08-14T15:24:13.553Z,4.73
2018-08-14T15:26:42.656Z,3.83
2018-08-14T15:29:14.627Z,4.17
2018-08-14T15:31:45.449Z,4.50
2018-08-14T15:34:14.870Z,4.80
2018-08-14T15:36:44.062Z,4.30
2018-08-14T15:39:13.509Z,4.67
2018-08-14T15:41:41.700Z,4.20
2018-08-14T15:44:10.247Z,2.33
2018-08-14T15:46:38.442Z,1.90
2018-08-14T15:49:07.195Z,2.10
2018-08-14T15:51:35.339Z,2.45
2018-08-14T15:54:03.501Z,1.92
2018-08-14T15:56:31.624Z,1.77
2018-08-14T15:58:59.750Z,1.80
2018-08-14T16:01:29.975Z,1.73
2018-08-14T16:03:58.334Z,2.03
2018-08-14T16:06:26.456Z,1.67
2018-08-14T16:08:54.571Z,1.63
2018-08-14T16:11:22.771Z,1.60
2018-08-14T16:13:50.891Z,1.40
2018-08-14T16:16:19.030Z,2.10
2018-08-14T16:18:47.227Z,1.60
2018-08-14T16:21:15.355Z,1.60
2018-08-14T16:23:43.489Z,1.90
2018-08-14T16:26:11.615Z,1.37
2018-08-14T16:28:39.740Z,1.52
2018-08-14T16:31:07.906Z,1.70
2018-08-14T16:33:36.101Z,1.53
2018-08-14T16:36:04.233Z,1.50
2018-08-14T16:38:32.369Z,1.37
2018-08-14T16:41:00.550Z,1.45
2018-08-14T16:43:28.643Z,1.20
2018-08-14T16:45:56.763Z,1.65
2018-08-14T16:48:24.929Z,1.27
2018-08-14T16:50:53.067Z,1.20
2018-08-14T16:53:21.201Z,1.40
2018-08-14T16:55:49.351Z,1.25
2018-08-14T16:58:17.516Z,1.57
2018-08-14T17:00:45.638Z,1.27
2018-08-14T17:03:13.760Z,1.38
2018-08-14T17:05:41.941Z,1.60
2018-08-14T17:08:12.978Z,1.50
2018-08-14T17:10:46.548Z,1.30
2018-08-14T17:13:15.361Z,1.45
2018-08-14T17:15:44.610Z,0.98
2018-08-14T17:18:12.847Z,1.20
2018-08-14T17:20:39.983Z,1.50
2018-08-14T17:23:08.888Z,1.75
2018-08-14T17:25:37.065Z,1.70
2018-08-14T17:28:05.391Z,1.40
2018-08-14T17:30:33.640Z,1.40
2018-08-14T17:33:02.075Z,1.63
2018-08-14T17:35:30.224Z,1.60
2018-08-14T17:37:58.338Z,1.47
2018-08-14T17:40:27.247Z,1.42
2018-08-14T17:42:55.500Z,1.60
2018-08-14T17:45:25.825Z,1.40
2018-08-14T17:47:57.253Z,1.60
2018-08-14T17:50:27.175Z,1.40
2018-08-14T17:52:55.510Z,1.67
2018-08-14T17:55:24.389Z,1.70
2018-08-14T17:57:52.537Z,1.70
2018-08-14T18:00:24.958Z,1.67
2018-08-14T18:02:56.747Z,1.70
2018-08-14T18:05:24.895Z,1.93
2018-08-14T18:07:53.030Z,1.57
2018-08-14T18:10:22.072Z,1.27
2018-08-14T18:12:50.143Z,1.30
2018-08-14T18:15:18.965Z,1.32
2018-08-14T18:17:47.076Z,1.67
2018-08-14T18:20:16.619Z,2.00
2018-08-14T18:22:44.742Z,1.73
2018-08-14T18:25:14.741Z,1.40
2018-08-14T18:27:43.327Z,1.47
2018-08-14T18:30:12.860Z,1.73
2018-08-14T18:32:42.532Z,1.80
2018-08-14T18:35:11.221Z,2.00
2018-08-14T18:37:39.708Z,1.62
2018-08-14T18:40:18.531Z,1.87
2018-08-14T18:42:47.232Z,1.92
2018-08-14T18:45:17.702Z,1.87
2018-08-14T18:47:46.598Z,1.80
2018-08-14T18:50:16.415Z,1.52
2018-08-14T18:52:44.569Z,1.87
2018-08-14T18:55:14.473Z,1.57
2018-08-14T18:57:43.484Z,1.80
2018-08-14T19:00:32.796Z,1.33
2018-08-14T19:03:00.992Z,1.33
2018-08-14T19:05:29.162Z,1.60
2018-08-14T19:07:57.286Z,1.40
2018-08-14T19:10:26.283Z,1.60
2018-08-14T19:12:55.192Z,1.23
2018-08-14T19:15:29.484Z,1.43
2018-08-14T19:17:57.640Z,1.40
2018-08-14T19:20:25.858Z,1.50
2018-08-14T19:22:54.011Z,1.80
2018-08-14T19:25:22.211Z,1.50
2018-08-14T19:27:50.464Z,1.50
2018-08-14T19:30:18.607Z,1.70
2018-08-14T19:32:46.804Z,1.85
2018-08-14T19:35:15.891Z,1.50
2018-08-14T19:37:44.136Z,2.25
2018-08-14T19:40:15.458Z,1.80
2018-08-14T19:42:43.661Z,1.70
2018-08-14T19:45:11.934Z,1.83
2018-08-14T19:47:40.462Z,2.00
2018-08-14T19:50:09.214Z,1.85
2018-08-14T19:52:37.834Z,2.33
2018-08-14T19:55:08.124Z,1.80
2018-08-14T19:57:36.245Z,1.77
2018-08-14T20:00:05.464Z,1.70
2018-08-14T20:02:33.566Z,2.20
2018-08-14T20:05:02.404Z,2.00
2018-08-14T20:07:30.499Z,1.72
2018-08-14T20:09:59.434Z,1.80
2018-08-14T20:12:27.572Z,1.80
2018-08-14T20:14:55.711Z,1.92
2018-08-14T20:17:23.817Z,2.20
2018-08-14T20:19:52.048Z,2.60
2018-08-14T20:22:20.205Z,2.87
2018-08-14T20:24:48.364Z,2.33
2018-08-14T20:27:16.590Z,3.30
2018-08-14T20:29:44.684Z,2.20
2018-08-14T20:32:13.062Z,1.80
2018-08-14T20:34:41.192Z,2.30
2018-08-14T20:37:09.353Z,2.37
2018-08-14T20:39:37.526Z,2.30
2018-08-14T20:42:05.718Z,2.10
2018-08-14T20:44:33.873Z,2.53
2018-08-14T20:47:01.978Z,2.57
2018-08-14T20:49:30.233Z,2.47
2018-08-14T20:51:58.383Z,2.43
2018-08-14T20:54:26.528Z,2.07
2018-08-14T20:56:54.698Z,2.37
2018-08-14T20:59:22.851Z,1.90
2018-08-14T21:01:50.971Z,2.13
2018-08-14T21:04:19.200Z,2.27
2018-08-14T21:06:47.591Z,3.23
2018-08-14T21:09:15.711Z,1.90
2018-08-14T21:11:43.848Z,2.60
2018-08-14T21:14:12.028Z,2.00
2018-08-14T21:16:40.156Z,2.35
2018-08-14T21:19:08.267Z,2.42
2018-08-14T21:21:36.474Z,1.87
2018-08-14T21:24:04.645Z,2.30
2018-08-14T21:26:32.790Z,2.40
2018-08-14T21:29:00.954Z,2.00
2018-08-14T21:31:29.094Z,2.13
2018-08-14T21:33:57.232Z,1.53
2018-08-14T21:36:25.480Z,2.30
2018-08-14T21:38:53.606Z,2.10
2018-08-14T21:41:21.763Z,1.90
2018-08-14T21:43:49.908Z,1.93
2018-08-14T21:46:17.998Z,1.97
2018-08-14T21:48:46.152Z,1.90
2018-08-14T21:51:14.239Z,1.60
2018-08-14T21:53:42.428Z,1.67
2018-08-14T21:56:10.696Z,1.80
2018-08-14T21:58:38.849Z,1.90
2018-08-14T22:01:08.354Z,2.40
2018-08-14T22:03:44.508Z,3.20
2018-08-14T22:06:13.262Z,2.72
2018-08-14T22:08:41.404Z,2.12
2018-08-14T22:11:09.867Z,3.23
2018-08-14T22:13:38.136Z,2.42
2018-08-14T22:16:06.378Z,2.07
2018-08-14T22:18:34.497Z,1.90
2018-08-14T22:21:02.735Z,1.70
2018-08-14T22:23:31.272Z,2.17
2018-08-14T22:25:59.619Z,2.07
2018-08-14T22:28:27.767Z,1.73
2018-08-14T22:30:56.024Z,2.20
2018-08-14T22:33:24.229Z,1.52
2018-08-14T22:35:52.482Z,2.05
2018-08-14T22:38:20.648Z,2.40
2018-08-14T22:40:48.755Z,2.33
2018-08-14T22:43:16.867Z,2.00
2018-08-14T22:45:44.979Z,2.17
2018-08-14T22:48:13.132Z,2.97
2018-08-14T22:50:41.250Z,2.50
2018-08-14T22:53:10.156Z,2.42
2018-08-14T22:55:38.293Z,1.57
2018-08-14T22:58:06.473Z,2.03
2018-08-14T23:00:34.640Z,2.10
2018-08-14T23:03:02.752Z,2.37
2018-08-14T23:05:30.841Z,2.00
2018-08-14T23:07:58.963Z,2.10
2018-08-14T23:10:27.199Z,2.03
2018-08-14T23:12:55.327Z,1.87
2018-08-14T23:15:23.475Z,2.10
2018-08-14T23:17:51.619Z,2.07
2018-08-14T23:20:19.842Z,2.30
2018-08-14T23:22:47.949Z,1.90
2018-08-14T23:25:16.061Z,1.80
2018-08-14T23:27:44.141Z,2.20
2018-08-14T23:30:14.098Z,1.87
2018-08-14T23:32:42.331Z,2.07
2018-08-14T23:35:10.500Z,2.20
2018-08-14T23:37:38.880Z,2.00
2018-08-14T23:40:08.884Z,1.80
2018-08-14T23:42:37.066Z,2.80
2018-08-14T23:45:05.788Z,1.80
2018-08-14T23:47:34.077Z,1.90
2018-08-14T23:50:02.221Z,2.35
2018-08-14T23:52:30.378Z,2.58
2018-08-14T23:54:58.582Z,2.27
2018-08-14T23:57:26.713Z,1.95
2018-08-14T23:59:54.872Z,2.15
